sensor_id;sensor_type;location;lat;lon;timestamp;P1;durP1;ratioP1;P2;durP2;ratioP2
15944;SDS011;30172;48.832;8.732;2024-03-06T00:00:09;3.97;;;2.07;;
15944;SDS011;30172;48.832;8.732;2024-03-06T00:02:35;4.63;;;2.63;;
15944;SDS011;30172;48.832;8.732;2024-03-06T00:05:01;8.43;;;3.13;;
15944;SDS011;30172;48.832;8.732;2024-03-06T00:07:26;6.07;;;2.87;;
15944;SDS011;30172;48.832;8.732;2024-03-06T00:09:52;4.33;;;2.87;;
15944;SDS011;30172;48.832;8.732;2024-03-06T00:12:18;3.87;;;2.80;;
15944;SDS011;30172;48.832;8.732;2024-03-06T00:14:43;5.63;;;3.50;;
15944;SDS011;30172;48.832;8.732;2024-03-06T00:17:09;3.90;;;2.93;;
15944;SDS011;30172;48.832;8.732;2024-03-06T00:19:34;3.87;;;2.90;;
15944;SDS011;30172;48.832;8.732;2024-03-06T00:22:00;3.90;;;2.90;;
15944;SDS011;30172;48.832;8.732;2024-03-06T00:24:26;4.63;;;2.70;;
15944;SDS011;30172;48.832;8.732;2024-03-06T00:26:51;4.87;;;2.97;;
15944;SDS011;30172;48.832;8.732;2024-03-06T00:29:17;3.20;;;2.70;;
15944;SDS011;30172;48.832;8.732;2024-03-06T00:31:43;5.83;;;2.90;;
15944;SDS011;30172;48.832;8.732;2024-03-06T00:34:09;4.70;;;2.60;;
15944;SDS011;30172;48.832;8.732;2024-03-06T00:36:35;4.80;;;2.63;;
15944;SDS011;30172;48.832;8.732;2024-03-06T00:39:00;4.57;;;2.70;;
15944;SDS011;30172;48.832;8.732;2024-03-06T00:41:26;4.60;;;2.40;;
15944;SDS011;30172;48.832;8.732;2024-03-06T00:43:51;3.43;;;2.60;;
15944;SDS011;30172;48.832;8.732;2024-03-06T00:46:16;4.40;;;2.60;;
15944;SDS011;30172;48.832;8.732;2024-03-06T00:48:42;2.83;;;2.40;;
15944;SDS011;30172;48.832;8.732;2024-03-06T00:51:07;4.30;;;2.83;;
15944;SDS011;30172;48.832;8.732;2024-03-06T00:53:33;3.20;;;2.10;;
15944;SDS011;30172;48.832;8.732;2024-03-06T00:55:59;4.00;;;2.60;;
15944;SDS011;30172;48.832;8.732;2024-03-06T00:58:25;6.33;;;2.73;;
15944;SDS011;30172;48.832;8.732;2024-03-06T01:00:50;6.20;;;2.90;;
15944;SDS011;30172;48.832;8.732;2024-03-06T01:03:15;3.50;;;2.37;;
15944;SDS011;30172;48.832;8.732;2024-03-06T01:05:41;6.80;;;2.57;;
15944;SDS011;30172;48.832;8.732;2024-03-06T01:08:07;6.93;;;2.60;;
15944;SDS011;30172;48.832;8.732;2024-03-06T01:10:32;3.53;;;2.40;;
15944;SDS011;30172;48.832;8.732;2024-03-06T01:12:57;3.47;;;2.97;;
15944;SDS011;30172;48.832;8.732;2024-03-06T01:15:23;4.60;;;2.30;;
15944;SDS011;30172;48.832;8.732;2024-03-06T01:17:48;3.67;;;2.20;;
15944;SDS011;30172;48.832;8.732;2024-03-06T01:20:15;4.27;;;2.20;;
15944;SDS011;30172;48.832;8.732;2024-03-06T01:22:40;3.30;;;1.83;;
15944;SDS011;30172;48.832;8.732;2024-03-06T01:25:06;4.03;;;2.40;;
15944;SDS011;30172;48.832;8.732;2024-03-06T01:27:32;4.97;;;2.00;;
15944;SDS011;30172;48.832;8.732;2024-03-06T01:29:57;3.60;;;2.10;;
15944;SDS011;30172;48.832;8.732;2024-03-06T01:32:23;1.90;;;1.80;;
15944;SDS011;30172;48.832;8.732;2024-03-06T01:34:48;3.40;;;2.03;;
15944;SDS011;30172;48.832;8.732;2024-03-06T01:37:13;3.57;;;2.10;;
15944;SDS011;30172;48.832;8.732;2024-03-06T01:39:39;4.40;;;2.60;;
15944;SDS011;30172;48.832;8.732;2024-03-06T01:42:04;4.10;;;2.10;;
15944;SDS011;30172;48.832;8.732;2024-03-06T01:44:29;2.90;;;2.00;;
15944;SDS011;30172;48.832;8.732;2024-03-06T01:46:55;2.77;;;2.43;;
15944;SDS011;30172;48.832;8.732;2024-03-06T01:49:20;5.50;;;2.50;;
15944;SDS011;30172;48.832;8.732;2024-03-06T01:51:51;4.20;;;2.60;;
15944;SDS011;30172;48.832;8.732;2024-03-06T01:54:17;3.83;;;2.50;;
15944;SDS011;30172;48.832;8.732;2024-03-06T01:56:44;6.30;;;2.87;;
15944;SDS011;30172;48.832;8.732;2024-03-06T01:59:11;5.83;;;2.60;;
15944;SDS011;30172;48.832;8.732;2024-03-06T02:01:37;5.63;;;3.07;;
15944;SDS011;30172;48.832;8.732;2024-03-06T02:04:02;4.47;;;3.23;;
15944;SDS011;30172;48.832;8.732;2024-03-06T02:06:28;4.40;;;2.80;;
15944;SDS011;30172;48.832;8.732;2024-03-06T02:08:53;4.67;;;3.30;;
15944;SDS011;30172;48.832;8.732;2024-03-06T02:11:18;5.20;;;2.77;;
15944;SDS011;30172;48.832;8.732;2024-03-06T02:13:44;4.37;;;2.67;;
15944;SDS011;30172;48.832;8.732;2024-03-06T02:16:09;4.27;;;3.00;;
15944;SDS011;30172;48.832;8.732;2024-03-06T02:18:35;5.50;;;3.37;;
15944;SDS011;30172;48.832;8.732;2024-03-06T02:21:01;4.43;;;2.87;;
15944;SDS011;30172;48.832;8.732;2024-03-06T02:23:27;5.17;;;2.80;;
15944;SDS011;30172;48.832;8.732;2024-03-06T02:25:52;5.03;;;2.90;;
15944;SDS011;30172;48.832;8.732;2024-03-06T02:28:18;4.57;;;3.40;;
15944;SDS011;30172;48.832;8.732;2024-03-06T02:30:43;5.47;;;3.20;;
15944;SDS011;30172;48.832;8.732;2024-03-06T02:33:09;4.53;;;2.83;;
15944;SDS011;30172;48.832;8.732;2024-03-06T02:35:35;6.63;;;3.30;;
15944;SDS011;30172;48.832;8.732;2024-03-06T02:38:04;4.77;;;3.23;;
15944;SDS011;30172;48.832;8.732;2024-03-06T02:40:30;8.17;;;3.33;;
15944;SDS011;30172;48.832;8.732;2024-03-06T02:42:56;7.30;;;3.60;;
15944;SDS011;30172;48.832;8.732;2024-03-06T02:45:21;5.77;;;3.00;;
15944;SDS011;30172;48.832;8.732;2024-03-06T02:47:47;5.87;;;3.33;;
15944;SDS011;30172;48.832;8.732;2024-03-06T02:50:12;5.33;;;3.33;;
15944;SDS011;30172;48.832;8.732;2024-03-06T02:52:38;7.83;;;3.50;;
15944;SDS011;30172;48.832;8.732;2024-03-06T02:55:04;5.17;;;3.20;;
15944;SDS011;30172;48.832;8.732;2024-03-06T02:57:30;5.13;;;3.20;;
15944;SDS011;30172;48.832;8.732;2024-03-06T02:59:56;3.97;;;3.07;;
15944;SDS011;30172;48.832;8.732;2024-03-06T03:02:22;7.23;;;3.60;;
15944;SDS011;30172;48.832;8.732;2024-03-06T03:04:48;4.23;;;3.43;;
15944;SDS011;30172;48.832;8.732;2024-03-06T03:07:14;6.20;;;3.60;;
15944;SDS011;30172;48.832;8.732;2024-03-06T03:09:39;9.97;;;3.43;;
15944;SDS011;30172;48.832;8.732;2024-03-06T03:12:05;5.90;;;3.57;;
15944;SDS011;30172;48.832;8.732;2024-03-06T03:14:31;6.00;;;3.40;;
15944;SDS011;30172;48.832;8.732;2024-03-06T03:16:56;4.83;;;3.47;;
15944;SDS011;30172;48.832;8.732;2024-03-06T03:19:22;7.33;;;4.00;;
15944;SDS011;30172;48.832;8.732;2024-03-06T03:21:47;5.77;;;3.93;;
15944;SDS011;30172;48.832;8.732;2024-03-06T03:24:12;8.53;;;4.13;;
15944;SDS011;30172;48.832;8.732;2024-03-06T03:26:38;6.67;;;4.00;;
15944;SDS011;30172;48.832;8.732;2024-03-06T03:29:03;6.03;;;4.60;;
15944;SDS011;30172;48.832;8.732;2024-03-06T03:31:28;9.87;;;4.60;;
15944;SDS011;30172;48.832;8.732;2024-03-06T03:33:54;7.00;;;4.13;;
15944;SDS011;30172;48.832;8.732;2024-03-06T03:36:19;6.57;;;4.17;;
15944;SDS011;30172;48.832;8.732;2024-03-06T03:38:44;8.60;;;3.87;;
15944;SDS011;30172;48.832;8.732;2024-03-06T03:41:10;7.30;;;4.57;;
15944;SDS011;30172;48.832;8.732;2024-03-06T03:43:38;7.37;;;5.03;;
15944;SDS011;30172;48.832;8.732;2024-03-06T03:46:04;8.47;;;5.37;;
15944;SDS011;30172;48.832;8.732;2024-03-06T03:48:30;11.87;;;5.30;;
15944;SDS011;30172;48.832;8.732;2024-03-06T03:50:56;7.00;;;4.80;;
15944;SDS011;30172;48.832;8.732;2024-03-06T03:53:21;8.17;;;4.73;;
15944;SDS011;30172;48.832;8.732;2024-03-06T03:55:46;9.27;;;4.93;;
15944;SDS011;30172;48.832;8.732;2024-03-06T03:58:12;7.57;;;4.60;;
15944;SDS011;30172;48.832;8.732;2024-03-06T04:00:37;7.50;;;4.73;;
15944;SDS011;30172;48.832;8.732;2024-03-06T04:03:03;6.30;;;4.20;;
15944;SDS011;30172;48.832;8.732;2024-03-06T04:05:29;6.83;;;4.43;;
15944;SDS011;30172;48.832;8.732;2024-03-06T04:07:54;8.07;;;4.63;;
15944;SDS011;30172;48.832;8.732;2024-03-06T04:10:19;6.97;;;4.30;;
15944;SDS011;30172;48.832;8.732;2024-03-06T04:12:44;8.07;;;4.60;;
15944;SDS011;30172;48.832;8.732;2024-03-06T04:15:10;6.87;;;3.90;;
15944;SDS011;30172;48.832;8.732;2024-03-06T04:17:35;6.40;;;4.23;;
15944;SDS011;30172;48.832;8.732;2024-03-06T04:20:05;7.27;;;3.87;;
15944;SDS011;30172;48.832;8.732;2024-03-06T04:22:32;7.83;;;4.03;;
15944;SDS011;30172;48.832;8.732;2024-03-06T04:24:57;5.07;;;3.80;;
15944;SDS011;30172;48.832;8.732;2024-03-06T04:27:23;8.40;;;4.70;;
15944;SDS011;30172;48.832;8.732;2024-03-06T04:29:49;6.47;;;3.90;;
15944;SDS011;30172;48.832;8.732;2024-03-06T04:32:15;6.23;;;4.10;;
15944;SDS011;30172;48.832;8.732;2024-03-06T04:34:40;5.17;;;3.67;;
15944;SDS011;30172;48.832;8.732;2024-03-06T04:37:05;5.47;;;3.90;;
15944;SDS011;30172;48.832;8.732;2024-03-06T04:39:31;5.13;;;4.00;;
15944;SDS011;30172;48.832;8.732;2024-03-06T04:41:57;5.30;;;3.60;;
15944;SDS011;30172;48.832;8.732;2024-03-06T04:44:22;7.60;;;4.00;;
15944;SDS011;30172;48.832;8.732;2024-03-06T04:46:49;6.13;;;3.40;;
15944;SDS011;30172;48.832;8.732;2024-03-06T04:49:15;6.73;;;3.40;;
15944;SDS011;30172;48.832;8.732;2024-03-06T04:51:41;6.43;;;3.67;;
15944;SDS011;30172;48.832;8.732;2024-03-06T04:54:06;6.97;;;3.70;;
15944;SDS011;30172;48.832;8.732;2024-03-06T04:56:31;5.70;;;3.43;;
15944;SDS011;30172;48.832;8.732;2024-03-06T04:58:57;4.77;;;3.40;;
15944;SDS011;30172;48.832;8.732;2024-03-06T05:01:27;7.93;;;3.83;;
15944;SDS011;30172;48.832;8.732;2024-03-06T05:03:54;5.33;;;3.50;;
15944;SDS011;30172;48.832;8.732;2024-03-06T05:06:19;5.13;;;3.87;;
15944;SDS011;30172;48.832;8.732;2024-03-06T05:08:44;5.80;;;3.83;;
15944;SDS011;30172;48.832;8.732;2024-03-06T05:11:10;4.80;;;3.40;;
15944;SDS011;30172;48.832;8.732;2024-03-06T05:13:35;4.13;;;3.03;;
15944;SDS011;30172;48.832;8.732;2024-03-06T05:16:00;6.27;;;3.47;;
15944;SDS011;30172;48.832;8.732;2024-03-06T05:18:25;7.47;;;3.37;;
15944;SDS011;30172;48.832;8.732;2024-03-06T05:20:51;5.73;;;3.27;;
15944;SDS011;30172;48.832;8.732;2024-03-06T05:23:16;6.37;;;3.40;;
15944;SDS011;30172;48.832;8.732;2024-03-06T05:25:42;6.83;;;3.50;;
15944;SDS011;30172;48.832;8.732;2024-03-06T05:28:08;4.13;;;3.17;;
15944;SDS011;30172;48.832;8.732;2024-03-06T05:30:33;5.77;;;3.40;;
15944;SDS011;30172;48.832;8.732;2024-03-06T05:32:59;4.93;;;3.10;;
15944;SDS011;30172;48.832;8.732;2024-03-06T05:35:24;6.20;;;3.17;;
15944;SDS011;30172;48.832;8.732;2024-03-06T05:37:50;9.30;;;3.90;;
15944;SDS011;30172;48.832;8.732;2024-03-06T05:40:15;3.60;;;3.30;;
15944;SDS011;30172;48.832;8.732;2024-03-06T05:42:40;6.30;;;3.90;;
15944;SDS011;30172;48.832;8.732;2024-03-06T05:45:07;7.57;;;3.43;;
15944;SDS011;30172;48.832;8.732;2024-03-06T05:47:36;4.57;;;3.70;;
15944;SDS011;30172;48.832;8.732;2024-03-06T05:50:03;4.97;;;4.00;;
15944;SDS011;30172;48.832;8.732;2024-03-06T05:52:30;5.30;;;3.53;;
15944;SDS011;30172;48.832;8.732;2024-03-06T05:54:55;6.37;;;4.03;;
15944;SDS011;30172;48.832;8.732;2024-03-06T05:57:21;6.13;;;3.80;;
15944;SDS011;30172;48.832;8.732;2024-03-06T05:59:46;4.93;;;4.00;;
15944;SDS011;30172;48.832;8.732;2024-03-06T06:02:11;5.60;;;3.67;;
15944;SDS011;30172;48.832;8.732;2024-03-06T06:04:37;5.83;;;3.50;;
15944;SDS011;30172;48.832;8.732;2024-03-06T06:07:02;5.87;;;4.63;;
15944;SDS011;30172;48.832;8.732;2024-03-06T06:09:28;5.80;;;3.47;;
15944;SDS011;30172;48.832;8.732;2024-03-06T06:11:54;5.13;;;3.70;;
15944;SDS011;30172;48.832;8.732;2024-03-06T06:14:19;5.90;;;4.33;;
15944;SDS011;30172;48.832;8.732;2024-03-06T06:16:44;6.60;;;4.00;;
15944;SDS011;30172;48.832;8.732;2024-03-06T06:19:10;5.80;;;3.87;;
15944;SDS011;30172;48.832;8.732;2024-03-06T06:21:36;5.53;;;4.10;;
15944;SDS011;30172;48.832;8.732;2024-03-06T06:24:02;6.17;;;4.13;;
15944;SDS011;30172;48.832;8.732;2024-03-06T06:26:29;9.67;;;5.50;;
15944;SDS011;30172;48.832;8.732;2024-03-06T06:28:54;7.37;;;5.40;;
15944;SDS011;30172;48.832;8.732;2024-03-06T06:31:20;4.40;;;3.80;;
15944;SDS011;30172;48.832;8.732;2024-03-06T06:33:45;6.20;;;3.77;;
15944;SDS011;30172;48.832;8.732;2024-03-06T06:36:12;7.07;;;4.43;;
15944;SDS011;30172;48.832;8.732;2024-03-06T06:38:37;5.20;;;4.30;;
15944;SDS011;30172;48.832;8.732;2024-03-06T06:41:03;18.93;;;16.67;;
15944;SDS011;30172;48.832;8.732;2024-03-06T06:43:28;14.30;;;12.80;;
15944;SDS011;30172;48.832;8.732;2024-03-06T06:45:54;10.40;;;8.17;;
15944;SDS011;30172;48.832;8.732;2024-03-06T06:48:19;7.83;;;5.57;;
15944;SDS011;30172;48.832;8.732;2024-03-06T06:50:44;9.70;;;8.70;;
15944;SDS011;30172;48.832;8.732;2024-03-06T06:53:12;15.23;;;11.67;;
15944;SDS011;30172;48.832;8.732;2024-03-06T06:55:38;8.97;;;7.40;;
15944;SDS011;30172;48.832;8.732;2024-03-06T06:58:04;8.00;;;7.10;;
15944;SDS011;30172;48.832;8.732;2024-03-06T07:00:29;7.20;;;5.23;;
15944;SDS011;30172;48.832;8.732;2024-03-06T07:02:55;8.33;;;4.90;;
15944;SDS011;30172;48.832;8.732;2024-03-06T07:05:23;9.03;;;4.67;;
15944;SDS011;30172;48.832;8.732;2024-03-06T07:07:49;8.53;;;4.70;;
15944;SDS011;30172;48.832;8.732;2024-03-06T07:10:14;7.73;;;6.10;;
15944;SDS011;30172;48.832;8.732;2024-03-06T07:12:39;7.27;;;5.03;;
15944;SDS011;30172;48.832;8.732;2024-03-06T07:15:05;8.63;;;5.30;;
15944;SDS011;30172;48.832;8.732;2024-03-06T07:17:31;9.37;;;6.43;;
15944;SDS011;30172;48.832;8.732;2024-03-06T07:19:56;7.77;;;6.20;;
15944;SDS011;30172;48.832;8.732;2024-03-06T07:22:22;7.67;;;5.83;;
15944;SDS011;30172;48.832;8.732;2024-03-06T07:24:47;9.60;;;7.77;;
15944;SDS011;30172;48.832;8.732;2024-03-06T07:27:13;8.03;;;5.70;;
15944;SDS011;30172;48.832;8.732;2024-03-06T07:29:38;10.07;;;7.33;;
15944;SDS011;30172;48.832;8.732;2024-03-06T07:32:03;10.30;;;5.63;;
15944;SDS011;30172;48.832;8.732;2024-03-06T07:34:32;7.33;;;5.77;;
15944;SDS011;30172;48.832;8.732;2024-03-06T07:36:58;8.80;;;5.53;;
15944;SDS011;30172;48.832;8.732;2024-03-06T07:39:26;11.37;;;5.83;;
15944;SDS011;30172;48.832;8.732;2024-03-06T07:41:52;9.63;;;6.43;;
15944;SDS011;30172;48.832;8.732;2024-03-06T07:44:17;9.20;;;5.60;;
15944;SDS011;30172;48.832;8.732;2024-03-06T07:46:43;13.93;;;9.63;;
15944;SDS011;30172;48.832;8.732;2024-03-06T07:49:08;17.37;;;15.30;;
15944;SDS011;30172;48.832;8.732;2024-03-06T07:51:33;27.90;;;25.23;;
15944;SDS011;30172;48.832;8.732;2024-03-06T07:53:59;35.67;;;32.23;;
15944;SDS011;30172;48.832;8.732;2024-03-06T07:56:25;23.60;;;21.40;;
15944;SDS011;30172;48.832;8.732;2024-03-06T07:58:51;25.03;;;21.73;;
15944;SDS011;30172;48.832;8.732;2024-03-06T08:01:16;9.57;;;7.37;;
15944;SDS011;30172;48.832;8.732;2024-03-06T08:03:42;10.43;;;9.03;;
15944;SDS011;30172;48.832;8.732;2024-03-06T08:06:08;10.50;;;8.00;;
15944;SDS011;30172;48.832;8.732;2024-03-06T08:08:34;12.73;;;8.80;;
15944;SDS011;30172;48.832;8.732;2024-03-06T08:10:59;11.83;;;8.30;;
15944;SDS011;30172;48.832;8.732;2024-03-06T08:13:25;70.13;;;34.87;;
15944;SDS011;30172;48.832;8.732;2024-03-06T08:15:50;137.10;;;64.27;;
15944;SDS011;30172;48.832;8.732;2024-03-06T08:18:16;28.70;;;17.10;;
15944;SDS011;30172;48.832;8.732;2024-03-06T08:20:41;12.13;;;8.80;;
15944;SDS011;30172;48.832;8.732;2024-03-06T08:23:07;8.13;;;6.53;;
15944;SDS011;30172;48.832;8.732;2024-03-06T08:25:34;8.70;;;5.53;;
15944;SDS011;30172;48.832;8.732;2024-03-06T08:28:00;7.00;;;5.67;;
15944;SDS011;30172;48.832;8.732;2024-03-06T08:30:25;6.73;;;5.27;;
15944;SDS011;30172;48.832;8.732;2024-03-06T08:32:51;7.60;;;5.57;;
15944;SDS011;30172;48.832;8.732;2024-03-06T08:35:16;6.43;;;5.07;;
15944;SDS011;30172;48.832;8.732;2024-03-06T08:37:43;7.67;;;5.07;;
15944;SDS011;30172;48.832;8.732;2024-03-06T08:40:09;7.10;;;6.13;;
15944;SDS011;30172;48.832;8.732;2024-03-06T08:42:42;14.63;;;8.50;;
15944;SDS011;30172;48.832;8.732;2024-03-06T08:45:12;8.50;;;7.70;;
15944;SDS011;30172;48.832;8.732;2024-03-06T08:47:37;15.10;;;11.13;;
15944;SDS011;30172;48.832;8.732;2024-03-06T08:50:03;20.07;;;14.53;;
15944;SDS011;30172;48.832;8.732;2024-03-06T08:52:29;15.10;;;11.50;;
15944;SDS011;30172;48.832;8.732;2024-03-06T08:54:56;10.30;;;9.13;;
15944;SDS011;30172;48.832;8.732;2024-03-06T08:57:21;10.80;;;8.83;;
15944;SDS011;30172;48.832;8.732;2024-03-06T08:59:47;11.93;;;8.17;;
15944;SDS011;30172;48.832;8.732;2024-03-06T09:02:13;12.60;;;9.03;;
15944;SDS011;30172;48.832;8.732;2024-03-06T09:04:40;9.97;;;8.20;;
15944;SDS011;30172;48.832;8.732;2024-03-06T09:07:06;9.47;;;7.87;;
15944;SDS011;30172;48.832;8.732;2024-03-06T09:09:32;10.03;;;8.33;;
15944;SDS011;30172;48.832;8.732;2024-03-06T09:11:59;8.73;;;7.57;;
15944;SDS011;30172;48.832;8.732;2024-03-06T09:14:25;8.97;;;7.30;;
15944;SDS011;30172;48.832;8.732;2024-03-06T09:16:50;10.07;;;7.57;;
15944;SDS011;30172;48.832;8.732;2024-03-06T09:19:16;10.97;;;8.00;;
15944;SDS011;30172;48.832;8.732;2024-03-06T09:21:41;9.87;;;7.10;;
15944;SDS011;30172;48.832;8.732;2024-03-06T09:24:07;10.63;;;7.40;;
15944;SDS011;30172;48.832;8.732;2024-03-06T09:26:32;8.73;;;7.17;;
15944;SDS011;30172;48.832;8.732;2024-03-06T09:28:58;8.97;;;6.93;;
15944;SDS011;30172;48.832;8.732;2024-03-06T09:31:23;7.97;;;6.07;;
15944;SDS011;30172;48.832;8.732;2024-03-06T09:33:50;8.77;;;6.67;;
15944;SDS011;30172;48.832;8.732;2024-03-06T09:36:15;7.27;;;6.57;;
15944;SDS011;30172;48.832;8.732;2024-03-06T09:38:40;8.57;;;7.53;;
15944;SDS011;30172;48.832;8.732;2024-03-06T09:41:06;13.17;;;8.23;;
15944;SDS011;30172;48.832;8.732;2024-03-06T09:43:33;14.87;;;8.90;;
15944;SDS011;30172;48.832;8.732;2024-03-06T09:45:58;13.10;;;8.37;;
15944;SDS011;30172;48.832;8.732;2024-03-06T09:48:23;10.97;;;8.27;;
15944;SDS011;30172;48.832;8.732;2024-03-06T09:50:49;10.57;;;8.53;;
15944;SDS011;30172;48.832;8.732;2024-03-06T09:53:15;13.53;;;9.20;;
15944;SDS011;30172;48.832;8.732;2024-03-06T09:55:41;12.07;;;8.63;;
15944;SDS011;30172;48.832;8.732;2024-03-06T09:58:07;16.73;;;9.83;;
15944;SDS011;30172;48.832;8.732;2024-03-06T10:00:34;16.57;;;9.77;;
15944;SDS011;30172;48.832;8.732;2024-03-06T10:03:01;13.07;;;10.40;;
15944;SDS011;30172;48.832;8.732;2024-03-06T10:05:28;11.93;;;10.70;;
15944;SDS011;30172;48.832;8.732;2024-03-06T10:07:55;13.97;;;11.00;;
15944;SDS011;30172;48.832;8.732;2024-03-06T10:10:20;12.40;;;10.00;;
15944;SDS011;30172;48.832;8.732;2024-03-06T10:12:47;14.83;;;10.63;;
15944;SDS011;30172;48.832;8.732;2024-03-06T10:15:14;29.53;;;20.37;;
15944;SDS011;30172;48.832;8.732;2024-03-06T10:17:39;17.07;;;15.27;;
15944;SDS011;30172;48.832;8.732;2024-03-06T10:20:25;22.23;;;16.33;;
15944;SDS011;30172;48.832;8.732;2024-03-06T10:22:51;25.53;;;23.00;;
15944;SDS011;30172;48.832;8.732;2024-03-06T10:25:18;48.10;;;43.73;;
15944;SDS011;30172;48.832;8.732;2024-03-06T10:30:32;18.60;;;14.37;;
15944;SDS011;30172;48.832;8.732;2024-03-06T10:33:04;13.10;;;10.97;;
15944;SDS011;30172;48.832;8.732;2024-03-06T10:35:32;15.40;;;12.17;;
15944;SDS011;30172;48.832;8.732;2024-03-06T10:38:00;13.80;;;10.57;;
15944;SDS011;30172;48.832;8.732;2024-03-06T10:40:27;11.53;;;9.97;;
15944;SDS011;30172;48.832;8.732;2024-03-06T10:42:56;14.53;;;12.93;;
15944;SDS011;30172;48.832;8.732;2024-03-06T10:45:23;15.40;;;12.57;;
15944;SDS011;30172;48.832;8.732;2024-03-06T10:48:04;13.03;;;11.10;;
15944;SDS011;30172;48.832;8.732;2024-03-06T10:50:31;15.60;;;11.43;;
15944;SDS011;30172;48.832;8.732;2024-03-06T10:52:57;15.17;;;10.63;;
15944;SDS011;30172;48.832;8.732;2024-03-06T10:55:22;12.83;;;9.57;;
15944;SDS011;30172;48.832;8.732;2024-03-06T10:57:49;11.57;;;9.20;;
15944;SDS011;30172;48.832;8.732;2024-03-06T11:00:17;17.93;;;11.23;;
15944;SDS011;30172;48.832;8.732;2024-03-06T11:02:45;12.07;;;10.37;;
15944;SDS011;30172;48.832;8.732;2024-03-06T11:05:13;15.43;;;9.07;;
15944;SDS011;30172;48.832;8.732;2024-03-06T11:07:39;11.13;;;8.47;;
15944;SDS011;30172;48.832;8.732;2024-03-06T11:10:04;10.87;;;8.20;;
15944;SDS011;30172;48.832;8.732;2024-03-06T11:12:36;12.50;;;8.73;;
15944;SDS011;30172;48.832;8.732;2024-03-06T11:15:24;9.57;;;8.43;;
15944;SDS011;30172;48.832;8.732;2024-03-06T11:17:49;9.83;;;8.07;;
15944;SDS011;30172;48.832;8.732;2024-03-06T11:20:18;10.37;;;9.23;;
15944;SDS011;30172;48.832;8.732;2024-03-06T11:28:15;14.07;;;11.63;;
15944;SDS011;30172;48.832;8.732;2024-03-06T11:30:45;14.00;;;11.57;;
15944;SDS011;30172;48.832;8.732;2024-03-06T11:33:20;15.23;;;11.67;;
15944;SDS011;30172;48.832;8.732;2024-03-06T11:39:02;16.47;;;12.17;;
15944;SDS011;30172;48.832;8.732;2024-03-06T11:41:29;14.97;;;12.93;;
15944;SDS011;30172;48.832;8.732;2024-03-06T11:43:56;13.97;;;11.83;;
15944;SDS011;30172;48.832;8.732;2024-03-06T11:46:22;14.10;;;12.60;;
15944;SDS011;30172;48.832;8.732;2024-03-06T11:48:52;14.37;;;11.63;;
15944;SDS011;30172;48.832;8.732;2024-03-06T11:51:19;15.00;;;13.33;;
15944;SDS011;30172;48.832;8.732;2024-03-06T11:53:44;12.20;;;10.90;;
15944;SDS011;30172;48.832;8.732;2024-03-06T11:56:10;12.57;;;10.17;;
15944;SDS011;30172;48.832;8.732;2024-03-06T11:58:36;12.43;;;9.80;;
15944;SDS011;30172;48.832;8.732;2024-03-06T12:01:03;15.10;;;9.37;;
15944;SDS011;30172;48.832;8.732;2024-03-06T12:03:29;19.13;;;10.90;;
15944;SDS011;30172;48.832;8.732;2024-03-06T12:05:54;12.33;;;9.63;;
15944;SDS011;30172;48.832;8.732;2024-03-06T12:08:20;13.30;;;9.80;;
15944;SDS011;30172;48.832;8.732;2024-03-06T12:10:45;12.67;;;10.73;;
15944;SDS011;30172;48.832;8.732;2024-03-06T12:13:12;14.10;;;10.60;;
15944;SDS011;30172;48.832;8.732;2024-03-06T12:15:38;26.77;;;12.17;;
15944;SDS011;30172;48.832;8.732;2024-03-06T12:18:04;12.87;;;10.53;;
15944;SDS011;30172;48.832;8.732;2024-03-06T12:20:30;14.97;;;12.00;;
15944;SDS011;30172;48.832;8.732;2024-03-06T12:22:56;16.63;;;13.60;;
15944;SDS011;30172;48.832;8.732;2024-03-06T12:25:23;15.43;;;13.37;;
15944;SDS011;30172;48.832;8.732;2024-03-06T12:27:49;15.23;;;12.13;;
15944;SDS011;30172;48.832;8.732;2024-03-06T12:30:19;14.93;;;11.77;;
15944;SDS011;30172;48.832;8.732;2024-03-06T12:32:55;13.53;;;12.03;;
15944;SDS011;30172;48.832;8.732;2024-03-06T12:35:25;15.90;;;13.47;;
15944;SDS011;30172;48.832;8.732;2024-03-06T12:37:51;17.77;;;13.80;;
15944;SDS011;30172;48.832;8.732;2024-03-06T12:40:16;20.40;;;17.20;;
15944;SDS011;30172;48.832;8.732;2024-03-06T12:42:41;23.87;;;17.90;;
15944;SDS011;30172;48.832;8.732;2024-03-06T12:45:08;43.03;;;29.10;;
15944;SDS011;30172;48.832;8.732;2024-03-06T12:47:35;21.30;;;17.43;;
15944;SDS011;30172;48.832;8.732;2024-03-06T12:50:00;17.33;;;15.47;;
15944;SDS011;30172;48.832;8.732;2024-03-06T12:52:26;18.30;;;13.47;;
15944;SDS011;30172;48.832;8.732;2024-03-06T12:54:51;21.60;;;13.33;;
15944;SDS011;30172;48.832;8.732;2024-03-06T12:57:17;18.70;;;14.57;;
15944;SDS011;30172;48.832;8.732;2024-03-06T12:59:42;18.83;;;15.40;;
15944;SDS011;30172;48.832;8.732;2024-03-06T13:02:08;22.23;;;17.83;;
15944;SDS011;30172;48.832;8.732;2024-03-06T13:04:33;20.10;;;17.67;;
15944;SDS011;30172;48.832;8.732;2024-03-06T13:06:58;20.93;;;16.23;;
15944;SDS011;30172;48.832;8.732;2024-03-06T13:09:24;20.20;;;15.17;;
15944;SDS011;30172;48.832;8.732;2024-03-06T13:11:50;17.40;;;14.70;;
15944;SDS011;30172;48.832;8.732;2024-03-06T13:14:15;23.87;;;17.20;;
15944;SDS011;30172;48.832;8.732;2024-03-06T13:16:40;20.43;;;16.20;;
15944;SDS011;30172;48.832;8.732;2024-03-06T13:19:06;19.13;;;16.27;;
15944;SDS011;30172;48.832;8.732;2024-03-06T13:21:32;19.27;;;16.13;;
15944;SDS011;30172;48.832;8.732;2024-03-06T13:23:58;20.60;;;18.30;;
15944;SDS011;30172;48.832;8.732;2024-03-06T13:26:24;17.63;;;15.57;;
15944;SDS011;30172;48.832;8.732;2024-03-06T13:28:49;17.80;;;16.00;;
15944;SDS011;30172;48.832;8.732;2024-03-06T13:31:15;23.77;;;17.30;;
15944;SDS011;30172;48.832;8.732;2024-03-06T13:33:41;23.13;;;19.33;;
15944;SDS011;30172;48.832;8.732;2024-03-06T13:36:06;20.43;;;18.20;;
15944;SDS011;30172;48.832;8.732;2024-03-06T13:38:33;19.93;;;16.97;;
15944;SDS011;30172;48.832;8.732;2024-03-06T13:40:58;20.53;;;17.90;;
15944;SDS011;30172;48.832;8.732;2024-03-06T13:43:27;22.83;;;17.50;;
15944;SDS011;30172;48.832;8.732;2024-03-06T13:45:52;22.87;;;18.57;;
15944;SDS011;30172;48.832;8.732;2024-03-06T13:48:18;22.70;;;18.67;;
15944;SDS011;30172;48.832;8.732;2024-03-06T13:50:43;21.90;;;17.90;;
15944;SDS011;30172;48.832;8.732;2024-03-06T13:53:09;24.27;;;19.67;;
15944;SDS011;30172;48.832;8.732;2024-03-06T13:55:35;22.40;;;18.33;;
15944;SDS011;30172;48.832;8.732;2024-03-06T13:58:01;21.40;;;17.87;;
15944;SDS011;30172;48.832;8.732;2024-03-06T14:00:27;24.40;;;17.67;;
15944;SDS011;30172;48.832;8.732;2024-03-06T14:02:52;24.10;;;18.23;;
15944;SDS011;30172;48.832;8.732;2024-03-06T14:05:17;23.20;;;17.87;;
15944;SDS011;30172;48.832;8.732;2024-03-06T14:07:44;24.07;;;17.40;;
15944;SDS011;30172;48.832;8.732;2024-03-06T14:10:10;21.87;;;17.60;;
15944;SDS011;30172;48.832;8.732;2024-03-06T14:12:35;24.30;;;17.87;;
15944;SDS011;30172;48.832;8.732;2024-03-06T14:15:02;20.57;;;18.20;;
15944;SDS011;30172;48.832;8.732;2024-03-06T14:17:28;24.07;;;19.13;;
15944;SDS011;30172;48.832;8.732;2024-03-06T14:19:54;20.30;;;17.83;;
15944;SDS011;30172;48.832;8.732;2024-03-06T14:22:19;20.10;;;17.83;;
15944;SDS011;30172;48.832;8.732;2024-03-06T14:24:45;22.83;;;19.83;;
15944;SDS011;30172;48.832;8.732;2024-03-06T14:27:10;26.07;;;21.83;;
15944;SDS011;30172;48.832;8.732;2024-03-06T14:29:35;22.50;;;19.20;;
15944;SDS011;30172;48.832;8.732;2024-03-06T14:32:01;22.77;;;18.60;;
15944;SDS011;30172;48.832;8.732;2024-03-06T14:34:26;25.80;;;19.57;;
15944;SDS011;30172;48.832;8.732;2024-03-06T14:36:52;20.57;;;18.37;;
15944;SDS011;30172;48.832;8.732;2024-03-06T14:39:20;22.27;;;19.87;;
15944;SDS011;30172;48.832;8.732;2024-03-06T14:41:50;24.00;;;19.00;;